createdAt,value
2022-11-25T00:00:05.496Z,20.639999
2022-11-25T00:01:14.082Z,20.639999
2022-11-25T00:02:22.824Z,20.639999
2022-11-25T00:03:31.279Z,20.639999
2022-11-25T00:04:40.821Z,20.629999
2022-11-25T00:05:50.396Z,20.629999
2022-11-25T00:06:58.972Z,20.629999
2022-11-25T00:08:07.589Z,20.629999
2022-11-25T00:09:17.165Z,20.629999
2022-11-25T00:10:25.761Z,20.620001
2022-11-25T00:11:35.321Z,20.620001
2022-11-25T00:12:43.897Z,20.620001
2022-11-25T00:13:52.521Z,20.620001
2022-11-25T00:15:02.100Z,20.620001
2022-11-25T00:16:10.741Z,20.620001
2022-11-25T00:17:19.238Z,20.620001
2022-11-25T00:18:28.940Z,20.620001
2022-11-25T00:19:36.505Z,20.610001
2022-11-25T00:20:46.093Z,20.610001
2022-11-25T00:21:55.669Z,20.610001
2022-11-25T00:23:03.267Z,20.610001
2022-11-25T00:24:12.850Z,20.610001
2022-11-25T00:25:20.436Z,20.610001
2022-11-25T00:26:30.008Z,20.6
2022-11-25T00:27:39.595Z,20.6
2022-11-25T00:28:47.170Z,20.6
2022-11-25T00:29:55.767Z,20.6
2022-11-25T00:31:04.299Z,20.6
2022-11-25T00:32:11.943Z,20.6
2022-11-25T00:33:21.460Z,20.6
2022-11-25T00:34:30.038Z,20.59
2022-11-25T00:35:38.623Z,20.59
2022-11-25T00:36:48.189Z,20.59
2022-11-25T00:37:56.804Z,20.59
2022-11-25T00:39:06.372Z,20.59
2022-11-25T00:40:14.958Z,20.59
2022-11-25T00:41:23.525Z,20.59
2022-11-25T00:42:33.216Z,20.59
2022-11-25T00:43:40.794Z,20.59
2022-11-25T00:44:50.360Z,20.58
2022-11-25T00:45:59.980Z,20.58
2022-11-25T00:47:08.509Z,20.58
2022-11-25T00:48:18.094Z,20.58
2022-11-25T00:49:26.671Z,20.58
2022-11-25T00:50:34.240Z,20.58
2022-11-25T00:51:43.818Z,20.58
2022-11-25T00:52:52.384Z,20.57
2022-11-25T00:54:02.003Z,20.57
2022-11-25T00:55:10.546Z,20.57
2022-11-25T00:56:19.118Z,20.57
2022-11-25T00:57:28.722Z,20.57
2022-11-25T00:58:37.326Z,20.57
2022-11-25T00:59:46.883Z,20.57
2022-11-25T01:00:55.485Z,20.57
2022-11-25T01:02:03.130Z,20.57
2022-11-25T01:03:12.618Z,20.57
2022-11-25T01:04:21.186Z,20.57
2022-11-25T01:05:30.780Z,20.559999
2022-11-25T01:06:40.351Z,20.559999
2022-11-25T01:07:47.990Z,20.559999
2022-11-25T01:08:57.509Z,20.559999
2022-11-25T01:10:06.079Z,20.559999
2022-11-25T01:11:13.651Z,20.559999
2022-11-25T01:12:23.220Z,20.559999
2022-11-25T01:13:32.834Z,20.559999
2022-11-25T01:14:42.409Z,20.559999
2022-11-25T01:15:50.970Z,20.559999
2022-11-25T01:16:58.534Z,20.549999
2022-11-25T01:18:08.139Z,20.549999
2022-11-25T01:19:17.696Z,20.549999
2022-11-25T01:20:26.588Z,20.549999
2022-11-25T01:21:36.166Z,20.549999
2022-11-25T01:22:43.746Z,20.549999
2022-11-25T01:23:52.334Z,20.549999
2022-11-25T01:25:01.908Z,20.549999
2022-11-25T01:26:10.502Z,20.549999
2022-11-25T01:27:20.059Z,20.549999
2022-11-25T01:28:28.666Z,20.549999
2022-11-25T01:29:37.230Z,20.549999
2022-11-25T01:30:47.811Z,20.549999
2022-11-25T01:31:56.477Z,20.549999
2022-11-25T01:33:05.984Z,20.549999
2022-11-25T01:34:15.590Z,20.549999
2022-11-25T01:35:23.130Z,20.549999
2022-11-25T01:36:32.719Z,20.549999
2022-11-25T01:37:42.307Z,20.540001
2022-11-25T01:38:49.886Z,20.540001
2022-11-25T01:39:59.468Z,20.540001
2022-11-25T01:41:07.047Z,20.540001
2022-11-25T01:42:15.597Z,20.540001
2022-11-25T01:43:25.208Z,20.540001
2022-11-25T01:44:32.816Z,20.540001
2022-11-25T01:45:42.377Z,20.540001
2022-11-25T01:46:50.909Z,20.540001
2022-11-25T01:47:58.471Z,20.540001
2022-11-25T01:49:08.067Z,20.540001
2022-11-25T01:50:16.651Z,20.540001
2022-11-25T01:51:25.204Z,20.540001
2022-11-25T01:52:34.780Z,20.540001
2022-11-25T01:53:42.375Z,20.540001
2022-11-25T01:54:51.933Z,20.540001
2022-11-25T01:56:00.492Z,20.540001
2022-11-25T01:57:10.063Z,20.540001
2022-11-25T01:58:19.649Z,20.540001
2022-11-25T01:59:27.211Z,20.540001
2022-11-25T02:00:35.774Z,20.540001
2022-11-25T02:01:45.424Z,20.540001
2022-11-25T02:02:53.905Z,20.530001
2022-11-25T02:04:03.480Z,20.530001
2022-11-25T02:05:12.048Z,20.540001
2022-11-25T02:06:19.634Z,20.540001
2022-11-25T02:07:29.213Z,20.530001
2022-11-25T02:08:36.759Z,20.540001
2022-11-25T02:09:45.321Z,20.530001
2022-11-25T02:10:54.919Z,20.530001
2022-11-25T02:12:02.467Z,20.530001
2022-11-25T02:13:12.056Z,20.530001
2022-11-25T02:14:20.646Z,20.530001
2022-11-25T02:15:29.236Z,20.530001
2022-11-25T02:16:38.834Z,20.530001
2022-11-25T02:17:46.368Z,20.530001
2022-11-25T02:18:55.951Z,20.530001
2022-11-25T02:20:05.527Z,20.530001
2022-11-25T02:21:14.085Z,20.530001
2022-11-25T02:22:23.742Z,20.530001
2022-11-25T02:23:33.322Z,20.530001
2022-11-25T02:24:40.885Z,20.530001
2022-11-25T02:25:50.470Z,20.530001
2022-11-25T02:26:58.037Z,20.530001
2022-11-25T02:28:06.605Z,20.530001
2022-11-25T02:29:16.223Z,20.52
2022-11-25T02:30:24.769Z,20.530001
2022-11-25T02:31:34.383Z,20.52
2022-11-25T02:32:42.914Z,20.52
2022-11-25T02:33:50.488Z,20.52
2022-11-25T02:35:00.055Z,20.52
2022-11-25T02:36:06.616Z,20.52
2022-11-25T02:37:16.201Z,20.52
2022-11-25T02:38:25.865Z,20.52
2022-11-25T02:39:33.413Z,20.52
2022-11-25T02:40:42.984Z,20.52
2022-11-25T02:41:51.560Z,20.52
2022-11-25T02:43:00.137Z,20.52
2022-11-25T02:44:10.732Z,20.52
2022-11-25T02:45:19.299Z,20.52
2022-11-25T02:46:28.968Z,20.52
2022-11-25T02:47:38.453Z,20.52
2022-11-25T02:49:07.751Z,20.52
2022-11-25T02:49:56.564Z,20.51
2022-11-25T02:51:05.144Z,20.51
2022-11-25T02:52:14.708Z,20.51
2022-11-25T02:53:24.298Z,20.51
2022-11-25T02:54:32.997Z,20.51
2022-11-25T02:55:42.461Z,20.51
2022-11-25T02:56:52.035Z,20.51
2022-11-25T02:57:59.615Z,20.51
2022-11-25T02:59:09.171Z,20.51
2022-11-25T03:00:17.739Z,20.51
2022-11-25T03:01:25.362Z,20.51
2022-11-25T03:02:34.904Z,20.51
2022-11-25T03:03:42.455Z,20.51
2022-11-25T03:04:51.019Z,20.51
2022-11-25T03:06:00.580Z,20.51
2022-11-25T03:07:10.242Z,20.51
2022-11-25T03:08:19.743Z,20.51
2022-11-25T03:09:28.524Z,20.51
2022-11-25T03:10:36.121Z,20.51
2022-11-25T03:11:45.680Z,20.51
2022-11-25T03:12:53.237Z,20.51
2022-11-25T03:14:01.817Z,20.51
2022-11-25T03:15:11.414Z,20.51
2022-11-25T03:16:19.018Z,20.51
2022-11-25T03:17:28.551Z,20.51
2022-11-25T03:18:37.135Z,20.5
2022-11-25T03:19:45.708Z,20.5
2022-11-25T03:20:55.321Z,20.5
2022-11-25T03:22:02.900Z,20.5
2022-11-25T03:23:12.537Z,20.5
2022-11-25T03:24:22.109Z,20.5
2022-11-25T03:25:29.705Z,20.5
2022-11-25T03:26:39.333Z,20.5
2022-11-25T03:27:49.870Z,20.5
2022-11-25T03:28:58.469Z,20.5
2022-11-25T03:30:08.040Z,20.5
2022-11-25T03:31:16.653Z,20.5
2022-11-25T03:32:25.182Z,20.5
2022-11-25T03:33:34.762Z,20.5
2022-11-25T03:34:42.332Z,20.5
2022-11-25T03:35:51.900Z,20.5
2022-11-25T03:37:00.494Z,20.5
2022-11-25T03:38:08.036Z,20.5
2022-11-25T03:39:17.640Z,20.5
2022-11-25T03:40:25.209Z,20.5
2022-11-25T03:41:33.781Z,20.5
2022-11-25T03:42:43.356Z,20.5
2022-11-25T03:43:50.911Z,20.5
2022-11-25T03:45:00.482Z,20.5
2022-11-25T03:46:09.074Z,20.5
2022-11-25T03:47:16.610Z,20.5
2022-11-25T03:48:26.194Z,20.49
2022-11-25T03:49:33.776Z,20.49
2022-11-25T03:50:42.331Z,20.49
2022-11-25T03:51:51.919Z,20.49
2022-11-25T03:52:59.486Z,20.49
2022-11-25T03:54:09.112Z,20.49
2022-11-25T03:55:18.697Z,20.49
2022-11-25T03:56:27.269Z,20.49
2022-11-25T03:57:36.839Z,20.49
2022-11-25T03:58:45.459Z,20.49
2022-11-25T03:59:54.003Z,20.49
2022-11-25T04:01:03.644Z,20.49
2022-11-25T04:02:11.191Z,20.49
2022-11-25T04:03:20.747Z,20.49
2022-11-25T04:04:30.345Z,20.49
2022-11-25T04:05:37.921Z,20.48
2022-11-25T04:06:47.497Z,20.49
2022-11-25T04:07:58.024Z,20.49
2022-11-25T04:09:03.660Z,20.48
2022-11-25T04:10:13.255Z,20.48
2022-11-25T04:11:21.845Z,20.48
2022-11-25T04:12:31.414Z,20.48
2022-11-25T04:13:40.009Z,20.48
2022-11-25T04:14:47.607Z,20.48
2022-11-25T04:15:57.192Z,20.48
2022-11-25T04:17:05.835Z,20.48
2022-11-25T04:18:14.365Z,20.48
2022-11-25T04:19:23.972Z,20.48
2022-11-25T04:20:32.607Z,20.48
2022-11-25T04:21:42.153Z,20.48
2022-11-25T04:22:51.738Z,20.48
2022-11-25T04:23:59.343Z,20.48
2022-11-25T04:25:08.937Z,20.48
2022-11-25T04:26:16.522Z,20.48
2022-11-25T04:27:26.150Z,20.48
2022-11-25T04:28:35.739Z,20.48
2022-11-25T04:29:43.316Z,20.48
2022-11-25T04:30:52.992Z,20.48
2022-11-25T04:32:02.474Z,20.48
2022-11-25T04:33:10.036Z,20.48
2022-11-25T04:34:19.649Z,20.48
2022-11-25T04:35:27.229Z,20.469999
2022-11-25T04:36:36.798Z,20.469999
2022-11-25T04:37:46.371Z,20.469999
2022-11-25T04:38:54.960Z,20.469999
2022-11-25T04:40:04.520Z,20.469999
2022-11-25T04:41:14.097Z,20.469999
2022-11-25T04:42:22.663Z,20.469999
2022-11-25T04:43:32.241Z,20.469999
2022-11-25T04:44:39.817Z,20.469999
2022-11-25T04:46:15.591Z,20.469999
2022-11-25T04:47:00.956Z,20.469999
2022-11-25T04:48:08.446Z,20.469999
2022-11-25T04:49:18.030Z,20.469999
2022-11-25T04:50:25.601Z,20.469999
2022-11-25T04:51:35.164Z,20.469999
2022-11-25T04:52:43.737Z,20.469999
2022-11-25T04:53:51.308Z,20.469999
2022-11-25T04:55:00.880Z,20.469999
2022-11-25T04:56:09.423Z,20.469999
2022-11-25T04:57:18.014Z,20.469999
2022-11-25T04:58:27.588Z,20.469999
2022-11-25T04:59:36.182Z,20.469999
2022-11-25T05:00:45.744Z,20.469999
2022-11-25T05:01:55.336Z,20.469999
2022-11-25T05:03:02.914Z,20.469999
2022-11-25T05:04:12.477Z,20.469999
2022-11-25T05:05:20.049Z,20.469999
2022-11-25T05:06:28.617Z,20.469999
2022-11-25T05:07:38.248Z,20.469999
2022-11-25T05:08:46.782Z,20.469999
2022-11-25T05:09:56.344Z,20.469999
2022-11-25T05:11:04.914Z,20.469999
2022-11-25T05:12:12.484Z,20.469999
2022-11-25T05:13:22.061Z,20.469999
2022-11-25T05:14:29.619Z,20.469999
2022-11-25T05:15:39.203Z,20.469999
2022-11-25T05:16:48.839Z,20.469999
2022-11-25T05:17:55.327Z,20.469999
2022-11-25T05:19:05.006Z,20.469999
2022-11-25T05:20:14.562Z,20.469999
2022-11-25T05:21:21.107Z,20.469999
2022-11-25T05:22:30.685Z,20.469999
2022-11-25T05:23:38.240Z,20.469999
2022-11-25T05:24:46.811Z,20.469999
2022-11-25T05:25:56.378Z,20.469999
2022-11-25T05:27:04.959Z,20.469999
2022-11-25T05:28:13.513Z,20.469999
2022-11-25T05:29:22.100Z,20.469999
2022-11-25T05:30:30.684Z,20.469999
2022-11-25T05:31:40.226Z,20.469999
2022-11-25T05:32:48.785Z,20.469999
2022-11-25T05:33:57.409Z,20.469999
2022-11-25T05:35:06.998Z,20.48
2022-11-25T05:36:14.570Z,20.48
2022-11-25T05:37:24.756Z,20.48
2022-11-25T05:38:33.697Z,20.48
2022-11-25T05:39:42.278Z,20.48
2022-11-25T05:40:51.844Z,20.48
2022-11-25T05:41:59.397Z,20.48
2022-11-25T05:43:07.954Z,20.48
2022-11-25T05:44:22.590Z,20.48
2022-11-25T05:45:27.155Z,20.48
2022-11-25T05:46:36.722Z,20.48
2022-11-25T05:47:45.311Z,20.48
2022-11-25T05:48:52.886Z,20.48
2022-11-25T05:50:02.455Z,20.48
2022-11-25T05:51:11.064Z,20.48
2022-11-25T05:52:18.615Z,20.48
2022-11-25T05:53:28.218Z,20.48
2022-11-25T05:54:36.982Z,20.48
2022-11-25T05:55:46.443Z,20.48
2022-11-25T05:56:55.152Z,20.48
2022-11-25T05:58:03.778Z,20.48
2022-11-25T05:59:13.375Z,20.48
2022-11-25T06:00:26.353Z,20.48
2022-11-25T06:01:30.580Z,20.48
2022-11-25T06:02:40.247Z,20.48
2022-11-25T06:03:48.825Z,20.48
2022-11-25T06:04:58.341Z,20.48
2022-11-25T06:06:06.940Z,20.48
2022-11-25T06:07:14.645Z,20.469999
2022-11-25T06:08:24.142Z,20.469999
2022-11-25T06:09:32.706Z,20.469999
2022-11-25T06:10:41.303Z,20.469999
2022-11-25T06:11:50.958Z,20.469999
2022-11-25T06:12:59.541Z,20.469999
2022-11-25T06:14:09.133Z,20.459999
2022-11-25T06:15:17.731Z,20.459999
2022-11-25T06:16:25.427Z,20.459999
2022-11-25T06:17:35.147Z,20.459999
2022-11-25T06:18:43.645Z,20.459999
2022-11-25T06:19:53.242Z,20.459999
2022-11-25T06:21:02.811Z,20.459999
2022-11-25T06:22:11.397Z,20.459999
2022-11-25T06:23:20.998Z,20.459999
2022-11-25T06:24:30.585Z,20.459999
2022-11-25T06:25:38.195Z,20.450001
2022-11-25T06:26:47.776Z,20.450001
2022-11-25T06:28:12.257Z,20.450001
2022-11-25T06:29:05.897Z,20.450001
2022-11-25T06:30:15.508Z,20.450001
2022-11-25T06:31:25.148Z,20.450001
2022-11-25T06:32:37.447Z,20.450001
2022-11-25T06:33:44.268Z,20.450001
2022-11-25T06:34:51.851Z,20.450001
2022-11-25T06:36:01.418Z,20.450001
2022-11-25T06:37:08.977Z,20.450001
2022-11-25T06:38:17.577Z,20.450001
2022-11-25T06:39:27.272Z,20.450001
2022-11-25T06:40:34.806Z,20.450001
2022-11-25T06:41:44.377Z,20.440001
2022-11-25T06:42:52.972Z,20.440001
2022-11-25T06:44:01.535Z,20.440001
2022-11-25T06:45:11.149Z,20.440001
2022-11-25T06:46:24.312Z,20.440001
2022-11-25T06:47:28.367Z,20.440001
2022-11-25T06:48:36.991Z,20.440001
2022-11-25T06:49:45.577Z,20.440001
2022-11-25T06:50:55.156Z,20.450001
2022-11-25T06:52:03.742Z,20.450001
2022-11-25T06:53:13.314Z,20.450001
2022-11-25T06:54:22.913Z,20.450001
2022-11-25T06:55:30.501Z,20.450001
2022-11-25T06:56:40.069Z,20.450001
2022-11-25T06:57:48.650Z,20.450001
2022-11-25T06:58:59.212Z,20.459999
2022-11-25T07:00:08.817Z,20.459999
2022-11-25T07:01:16.492Z,20.459999
2022-11-25T07:02:26.247Z,20.469999
2022-11-25T07:03:36.744Z,20.469999
2022-11-25T07:04:44.389Z,20.48
2022-11-25T07:05:53.959Z,20.48
2022-11-25T07:07:02.547Z,20.48
2022-11-25T07:08:12.136Z,20.49
2022-11-25T07:09:20.764Z,20.49
2022-11-25T07:10:29.424Z,20.5
2022-11-25T07:11:39.009Z,20.5
2022-11-25T07:12:48.577Z,20.51
2022-11-25T07:13:56.174Z,20.51
2022-11-25T07:15:05.775Z,20.52
2022-11-25T07:16:13.502Z,20.52
2022-11-25T07:17:21.949Z,20.52
2022-11-25T07:18:31.611Z,20.530001
2022-11-25T07:19:40.241Z,20.540001
2022-11-25T07:20:48.839Z,20.540001
2022-11-25T07:21:59.415Z,20.549999
2022-11-25T07:23:07.012Z,20.549999
2022-11-25T07:24:16.627Z,20.559999
2022-11-25T07:25:29.398Z,20.57
2022-11-25T07:26:33.817Z,20.57
2022-11-25T07:27:43.478Z,20.58
2022-11-25T07:28:52.058Z,20.58
2022-11-25T07:31:31.410Z,20.6
2022-11-25T07:32:22.823Z,20.6
2022-11-25T07:33:32.439Z,20.610001
2022-11-25T07:34:39.974Z,20.610001
2022-11-25T07:35:48.559Z,20.620001
2022-11-25T07:36:58.141Z,20.620001
2022-11-25T07:38:05.750Z,20.629999
2022-11-25T07:39:15.360Z,20.639999
2022-11-25T07:40:23.933Z,20.639999
2022-11-25T07:41:32.539Z,20.65
2022-11-25T07:42:42.132Z,20.66
2022-11-25T07:43:50.728Z,20.66
2022-11-25T07:45:00.290Z,20.67
2022-11-25T07:46:09.964Z,20.67
2022-11-25T07:47:19.423Z,20.68
2022-11-25T07:48:29.149Z,20.690001
2022-11-25T07:49:39.015Z,20.690001
2022-11-25T07:50:47.346Z,20.700001
2022-11-25T07:51:56.924Z,20.709999
2022-11-25T07:53:05.486Z,20.709999
2022-11-25T07:54:14.101Z,20.719999
2022-11-25T07:55:23.680Z,20.719999
2022-11-25T07:56:32.285Z,20.73
2022-11-25T07:57:41.873Z,20.74
2022-11-25T07:58:50.435Z,20.74
2022-11-25T07:59:58.051Z,20.75
2022-11-25T08:01:07.584Z,20.75
2022-11-25T08:02:15.167Z,20.76
2022-11-25T08:03:23.758Z,20.76
2022-11-25T08:04:32.354Z,20.77
2022-11-25T08:05:39.911Z,20.77
2022-11-25T08:06:49.492Z,20.780001
2022-11-25T08:07:58.075Z,20.780001
2022-11-25T08:09:05.596Z,20.790001
2022-11-25T08:10:15.174Z,20.790001
2022-11-25T08:11:22.730Z,20.799999
2022-11-25T08:12:32.295Z,20.799999
2022-11-25T08:13:41.872Z,20.809999
2022-11-25T08:14:50.453Z,20.809999
2022-11-25T08:16:00.141Z,20.82
2022-11-25T08:17:09.631Z,20.82
2022-11-25T08:18:18.185Z,20.83
2022-11-25T08:19:31.392Z,20.83
2022-11-25T08:20:37.379Z,20.84
2022-11-25T08:21:45.941Z,20.84
2022-11-25T08:22:55.537Z,20.85
2022-11-25T08:24:03.133Z,20.860001
2022-11-25T08:25:12.697Z,20.860001
2022-11-25T08:26:21.256Z,20.870001
2022-11-25T08:27:28.824Z,20.870001
2022-11-25T08:28:38.410Z,20.879999
2022-11-25T08:29:46.025Z,20.889999
2022-11-25T08:30:54.667Z,20.889999
2022-11-25T08:32:07.492Z,20.889999
2022-11-25T08:33:13.813Z,20.9
2022-11-25T08:34:23.408Z,20.9
2022-11-25T08:35:30.981Z,20.91
2022-11-25T08:36:42.519Z,20.91
2022-11-25T08:37:50.141Z,20.91
2022-11-25T08:38:57.727Z,20.92
2022-11-25T08:40:08.286Z,20.92
2022-11-25T08:41:17.910Z,20.92
2022-11-25T08:42:25.479Z,20.93
2022-11-25T08:43:35.085Z,20.93
2022-11-25T08:44:43.766Z,20.93
2022-11-25T08:45:53.358Z,20.940001
2022-11-25T08:47:02.025Z,20.940001
2022-11-25T08:48:09.582Z,20.940001
2022-11-25T08:49:19.165Z,20.940001
2022-11-25T08:50:26.836Z,20.940001
2022-11-25T08:51:35.426Z,20.950001
2022-11-25T08:52:45.011Z,20.950001
2022-11-25T08:53:53.604Z,20.950001
2022-11-25T08:55:03.219Z,20.950001
2022-11-25T08:56:11.804Z,20.950001
2022-11-25T08:57:22.382Z,20.959999
2022-11-25T08:58:31.961Z,20.959999
2022-11-25T08:59:39.927Z,20.959999
2022-11-25T09:00:49.196Z,20.959999
2022-11-25T09:01:58.854Z,20.969999
2022-11-25T09:03:07.471Z,20.969999
2022-11-25T09:04:17.085Z,20.98
2022-11-25T09:05:26.654Z,20.98
2022-11-25T09:06:35.282Z,20.98
2022-11-25T09:07:44.974Z,20.99
2022-11-25T09:08:53.478Z,20.99
2022-11-25T09:10:02.053Z,20.99
2022-11-25T09:11:11.664Z,21
2022-11-25T09:12:19.169Z,21
2022-11-25T09:13:28.744Z,21
2022-11-25T09:14:37.336Z,21.01
2022-11-25T09:15:44.948Z,21.01
2022-11-25T09:16:54.491Z,21.01
2022-11-25T09:18:03.056Z,21.01
2022-11-25T09:19:10.624Z,21.02
2022-11-25T09:20:20.227Z,21.02
2022-11-25T09:21:27.768Z,21.02
2022-11-25T09:22:37.344Z,21.02
2022-11-25T09:23:46.916Z,21.030001
2022-11-25T09:24:54.485Z,21.030001
2022-11-25T09:26:04.060Z,21.030001
2022-11-25T09:27:11.622Z,21.030001
2022-11-25T09:28:20.192Z,21.030001
2022-11-25T09:29:29.776Z,21.030001
2022-11-25T09:30:38.352Z,21.030001
2022-11-25T09:31:53.080Z,21.030001
2022-11-25T09:32:57.428Z,21.030001
2022-11-25T09:34:04.986Z,21.040001
2022-11-25T09:35:14.573Z,21.040001
2022-11-25T09:36:24.166Z,21.040001
2022-11-25T09:37:33.761Z,21.040001
2022-11-25T09:38:43.500Z,21.040001
2022-11-25T09:39:51.900Z,21.040001
2022-11-25T09:41:01.458Z,21.040001
2022-11-25T09:42:10.079Z,21.040001
2022-11-25T09:43:17.632Z,21.049999
2022-11-25T09:44:27.209Z,21.049999
2022-11-25T09:45:34.851Z,21.049999
2022-11-25T09:46:43.500Z,21.049999
2022-11-25T09:47:57.158Z,21.049999
2022-11-25T09:49:02.521Z,21.049999
2022-11-25T09:50:12.097Z,21.049999
2022-11-25T09:51:21.837Z,21.049999
2022-11-25T09:52:29.351Z,21.049999
2022-11-25T09:53:38.896Z,21.059999
2022-11-25T09:54:46.476Z,21.059999
2022-11-25T09:56:00.088Z,21.059999
2022-11-25T09:57:04.598Z,21.059999
2022-11-25T09:58:12.159Z,21.059999
2022-11-25T09:59:21.733Z,21.059999
2022-11-25T10:00:31.313Z,21.059999
2022-11-25T10:01:38.881Z,21.059999
2022-11-25T10:02:48.594Z,21.059999
2022-11-25T10:03:58.032Z,21.07
2022-11-25T10:05:07.618Z,21.07
2022-11-25T10:06:17.480Z,21.07
2022-11-25T10:07:24.972Z,21.07
2022-11-25T10:08:34.769Z,21.07
2022-11-25T10:09:43.368Z,21.07
2022-11-25T10:10:52.925Z,21.08
2022-11-25T10:12:02.633Z,21.08
2022-11-25T10:13:10.387Z,21.08
2022-11-25T10:14:19.926Z,21.08
2022-11-25T10:15:29.673Z,21.08
2022-11-25T10:16:37.298Z,21.08
2022-11-25T10:17:46.792Z,21.09
2022-11-25T10:18:56.366Z,21.09
2022-11-25T10:20:03.950Z,21.09
2022-11-25T10:21:13.520Z,21.09
2022-11-25T10:22:21.087Z,21.09
2022-11-25T10:23:28.776Z,21.1
2022-11-25T10:24:41.153Z,21.1
2022-11-25T10:25:46.804Z,21.1
2022-11-25T10:26:56.387Z,21.1
2022-11-25T10:28:05.965Z,21.1
2022-11-25T10:29:13.523Z,21.1
2022-11-25T10:30:23.099Z,21.1
2022-11-25T10:31:30.707Z,21.110001
2022-11-25T10:32:40.244Z,21.110001
2022-11-25T10:33:49.825Z,21.110001
2022-11-25T10:34:58.396Z,21.110001
2022-11-25T10:36:07.999Z,21.110001
2022-11-25T10:37:17.562Z,21.110001
2022-11-25T10:38:26.206Z,21.110001
2022-11-25T10:39:35.771Z,21.110001
2022-11-25T10:40:44.416Z,21.120001
2022-11-25T10:41:53.947Z,21.120001
2022-11-25T10:43:01.513Z,21.120001
2022-11-25T10:44:10.085Z,21.120001
2022-11-25T10:45:19.673Z,21.120001
2022-11-25T10:46:38.142Z,21.120001
2022-11-25T10:47:38.922Z,21.120001
2022-11-25T10:48:47.326Z,21.120001
2022-11-25T10:49:55.903Z,21.129999
2022-11-25T10:51:05.462Z,21.129999
2022-11-25T10:52:14.033Z,21.129999
2022-11-25T10:53:23.605Z,21.129999
2022-11-25T10:54:33.173Z,21.129999
2022-11-25T10:55:40.759Z,21.129999
2022-11-25T10:56:50.327Z,21.129999
2022-11-25T10:57:59.885Z,21.129999
2022-11-25T10:59:08.448Z,21.139999
2022-11-25T11:00:18.038Z,21.139999
2022-11-25T11:01:25.795Z,21.139999
2022-11-25T11:02:34.175Z,21.139999
2022-11-25T11:03:43.738Z,21.139999
2022-11-25T11:04:51.358Z,21.139999
2022-11-25T11:06:01.058Z,21.139999
2022-11-25T11:07:09.655Z,21.15
2022-11-25T11:08:18.130Z,21.15
2022-11-25T11:09:27.693Z,21.15
2022-11-25T11:10:35.247Z,21.15
2022-11-25T11:11:44.813Z,21.15
2022-11-25T11:12:54.397Z,21.15
2022-11-25T11:14:01.919Z,21.15
2022-11-25T11:15:11.497Z,21.15
2022-11-25T11:16:20.112Z,21.15
2022-11-25T11:17:30.644Z,21.15
2022-11-25T11:18:38.215Z,21.15
2022-11-25T11:19:45.939Z,21.15
2022-11-25T11:20:55.548Z,21.15
2022-11-25T11:22:05.103Z,21.15
2022-11-25T11:23:12.660Z,21.15
2022-11-25T11:24:22.229Z,21.15
2022-11-25T11:25:31.810Z,21.15
2022-11-25T11:26:39.397Z,21.16
2022-11-25T11:27:48.987Z,21.16
2022-11-25T11:28:57.575Z,21.16
2022-11-25T11:30:07.161Z,21.16
2022-11-25T11:31:16.783Z,21.16
2022-11-25T11:32:24.313Z,21.16
2022-11-25T11:33:33.893Z,21.16
2022-11-25T11:34:42.454Z,21.16
2022-11-25T11:35:51.019Z,21.16
2022-11-25T11:37:00.579Z,21.16
2022-11-25T11:38:09.150Z,21.16
2022-11-25T11:39:18.706Z,21.16
2022-11-25T11:40:28.293Z,21.16
2022-11-25T11:41:36.871Z,21.17
2022-11-25T11:42:46.429Z,21.17
2022-11-25T11:43:54.998Z,21.17
2022-11-25T11:45:02.624Z,21.17
2022-11-25T11:46:12.199Z,21.17
2022-11-25T11:47:19.718Z,21.17
2022-11-25T11:48:28.335Z,21.17
2022-11-25T11:49:37.894Z,21.17
2022-11-25T11:50:45.472Z,21.17
2022-11-25T11:51:55.059Z,21.17
2022-11-25T11:53:03.623Z,21.17
2022-11-25T11:54:12.179Z,21.17
2022-11-25T11:55:21.797Z,21.18
2022-11-25T11:56:35.056Z,21.18
2022-11-25T11:57:40.194Z,21.18
2022-11-25T11:58:49.773Z,21.18
2022-11-25T11:59:57.361Z,21.18
2022-11-25T12:01:06.013Z,21.18
2022-11-25T12:02:15.775Z,21.18
2022-11-25T12:03:24.270Z,21.18
2022-11-25T12:04:34.132Z,21.190001
2022-11-25T12:05:42.464Z,21.18
2022-11-25T12:06:51.033Z,21.190001
2022-11-25T12:08:00.751Z,21.190001
2022-11-25T12:09:08.481Z,21.190001
2022-11-25T12:10:17.967Z,21.190001
2022-11-25T12:11:26.664Z,21.190001
2022-11-25T12:12:34.225Z,21.190001
2022-11-25T12:13:43.792Z,21.190001
2022-11-25T12:14:51.348Z,21.190001
2022-11-25T12:15:59.992Z,21.190001
2022-11-25T12:17:09.503Z,21.200001
2022-11-25T12:18:17.043Z,21.200001
2022-11-25T12:19:26.601Z,21.200001
2022-11-25T12:20:36.191Z,21.200001
2022-11-25T12:21:43.754Z,21.200001
2022-11-25T12:22:53.383Z,21.200001
2022-11-25T12:24:00.962Z,21.200001
2022-11-25T12:25:10.596Z,21.200001
2022-11-25T12:26:20.248Z,21.200001
2022-11-25T12:27:27.837Z,21.200001
2022-11-25T12:28:37.434Z,21.200001
2022-11-25T12:29:46.083Z,21.200001
2022-11-25T12:30:53.724Z,21.200001
2022-11-25T12:32:04.398Z,21.200001
2022-11-25T12:33:12.847Z,21.200001
2022-11-25T12:34:22.452Z,21.200001
2022-11-25T12:35:32.183Z,21.200001
2022-11-25T12:36:41.124Z,21.200001
2022-11-25T12:37:50.711Z,21.200001
2022-11-25T12:38:57.327Z,21.200001
2022-11-25T12:40:06.955Z,21.200001
2022-11-25T12:41:15.523Z,21.200001
2022-11-25T12:42:23.166Z,21.200001
2022-11-25T12:43:32.745Z,21.200001
2022-11-25T12:44:40.401Z,21.200001
2022-11-25T12:45:50.047Z,21.200001
2022-11-25T12:46:59.591Z,21.209999
2022-11-25T12:48:08.199Z,21.209999
2022-11-25T12:49:17.812Z,21.209999
2022-11-25T12:50:27.411Z,21.200001
2022-11-25T12:51:38.686Z,21.209999
2022-11-25T12:52:48.441Z,21.209999
2022-11-25T12:53:56.797Z,21.209999
2022-11-25T12:55:05.461Z,21.209999
2022-11-25T12:56:15.042Z,21.209999
2022-11-25T12:57:21.683Z,21.209999
2022-11-25T12:58:31.278Z,21.200001
2022-11-25T12:59:40.900Z,21.200001
2022-11-25T13:00:48.500Z,21.209999
2022-11-25T13:01:58.128Z,21.200001
2022-11-25T13:03:12.397Z,21.200001
2022-11-25T13:04:16.191Z,21.200001
2022-11-25T13:05:39.945Z,21.200001
2022-11-25T13:06:36.455Z,21.200001
2022-11-25T13:07:46.294Z,21.200001
2022-11-25T13:08:54.863Z,21.200001
2022-11-25T13:10:02.473Z,21.200001
2022-11-25T13:11:12.359Z,21.200001
2022-11-25T13:12:19.864Z,21.200001
2022-11-25T13:13:28.565Z,21.200001
2022-11-25T13:14:38.636Z,21.200001
2022-11-25T13:15:47.876Z,21.200001
2022-11-25T13:16:57.648Z,21.200001
2022-11-25T13:18:05.770Z,21.200001
2022-11-25T13:19:14.321Z,21.200001
2022-11-25T13:20:24.912Z,21.200001
2022-11-25T13:21:33.572Z,21.200001
2022-11-25T13:22:42.254Z,21.200001
2022-11-25T13:23:51.746Z,21.200001
2022-11-25T13:25:00.324Z,21.200001
2022-11-25T13:26:08.908Z,21.200001
2022-11-25T13:27:18.479Z,21.190001
2022-11-25T13:28:26.070Z,21.190001
2022-11-25T13:29:35.621Z,21.190001
2022-11-25T13:30:43.222Z,21.190001
2022-11-25T13:31:55.959Z,21.190001
2022-11-25T13:33:01.417Z,21.190001
2022-11-25T13:34:09.983Z,21.190001
2022-11-25T13:35:19.582Z,21.190001
2022-11-25T13:36:28.148Z,21.190001
2022-11-25T13:37:36.937Z,21.190001
2022-11-25T13:38:46.307Z,21.190001
2022-11-25T13:39:53.870Z,21.190001
2022-11-25T13:41:02.563Z,21.190001
2022-11-25T13:42:12.171Z,21.190001
2022-11-25T13:43:19.743Z,21.190001
2022-11-25T13:44:28.338Z,21.190001
2022-11-25T13:45:36.938Z,21.190001
2022-11-25T13:46:44.553Z,21.190001
2022-11-25T13:47:54.129Z,21.190001
2022-11-25T13:49:01.710Z,21.18